Time;durP1;ratioP1;P1;durP2;ratioP2;P2;SDS_P1;SDS_P2;PMS_P1;PMS_P2;Temp;Humidity;BMP_temperature;BMP_pressure;BME280_temperature;BME280_humidity;BME280_pressure;Samples;Min_cycle;Max_cycle;Signal;HPM_P1;HPM_P2
2023/05/19 00:00:52;;;;;;;1.80;1.30;;;;;;;24.61;34.06;102456.72;20997376;28;20085;-64
2023/05/19 00:10:53;;;;;;;1.60;1.50;;;;;;;24.58;33.92;102474.06;20996064;28;20545;-65
2023/05/19 00:20:55;;;;;;;1.73;1.50;;;;;;;24.58;34.06;102482.44;20995381;28;20473;-65
2023/05/19 00:30:56;;;;;;;2.40;1.75;;;;;;;24.34;34.27;102456.78;20986257;28;20040;-65
2023/05/19 00:40:59;;;;;;;2.72;1.90;;;;;;;24.56;34.26;102518.28;20911046;28;20122;-65
2023/05/19 00:51:03;;;;;;;2.85;1.80;;;;;;;24.54;34.06;102534.47;20910304;28;20037;-65
2023/05/19 01:01:06;;;;;;;4.35;1.85;;;;;;;24.51;34.36;102549.84;20908371;28;20048;-65
2023/05/19 01:11:07;;;;;;;1.80;1.52;;;;;;;24.49;34.21;102562.41;20909536;28;20033;-65
2023/05/19 01:21:25;;;;;;;3.80;1.75;;;;;;;24.49;34.17;102582.84;20908581;28;20037;-66
2023/05/19 01:31:27;;;;;;;2.23;1.50;;;;;;;24.43;34.30;102599.88;20909352;28;20040;-65
2023/05/19 01:41:31;;;;;;;3.15;1.95;;;;;;;24.47;34.37;102613.06;20909257;28;20427;-65
2023/05/19 01:51:33;;;;;;;2.30;1.40;;;;;;;24.40;34.33;102626.41;20908932;28;20116;-67
2023/05/19 02:01:50;;;;;;;3.13;1.70;;;;;;;24.24;34.63;102610.56;20908568;28;20037;-66
2023/05/19 02:12:15;;;;;;;2.43;1.70;;;;;;;24.41;34.74;102655.22;20912477;28;20114;-64
2023/05/19 02:22:17;;;;;;;2.75;1.55;;;;;;;24.43;34.57;102658.63;20922379;28;20122;-66
2023/05/19 02:32:19;;;;;;;2.10;1.38;;;;;;;24.41;34.41;102667.25;20922198;28;20040;-65
2023/05/19 02:42:21;;;;;;;3.55;1.70;;;;;;;24.39;34.59;102649.06;20918602;28;20033;-66
2023/05/19 02:52:22;;;;;;;2.75;1.92;;;;;;;24.34;34.88;102649.81;20920766;28;20435;-66
2023/05/19 03:02:23;;;;;;;2.00;1.50;;;;;;;24.29;34.60;102653.41;20918537;28;20094;-65
2023/05/19 03:12:25;;;;;;;1.80;1.60;;;;;;;24.03;34.73;102607.50;20919189;28;20045;-65
2023/05/19 03:22:26;;;;;;;2.20;1.70;;;;;;;24.25;34.73;102646.66;20917158;28;20037;-65
2023/05/19 03:32:27;;;;;;;3.40;1.52;;;;;;;24.24;35.07;102655.31;20917694;28;20091;-65
2023/05/19 03:42:31;;;;;;;3.20;1.67;;;;;;;24.15;34.88;102646.53;20916830;28;20069;-65
2023/05/19 03:52:33;;;;;;;2.13;1.38;;;;;;;24.27;35.09;102669.59;20916031;28;20074;-65
2023/05/19 04:02:37;;;;;;;3.30;1.40;;;;;;;24.25;34.93;102677.41;20914998;28;20036;-65
2023/05/19 04:12:38;;;;;;;5.60;1.50;;;;;;;24.21;35.15;102659.47;20913887;28;20388;-64
2023/05/19 04:22:40;;;;;;;2.53;1.55;;;;;;;24.15;35.25;102657.72;20912858;28;20049;-64
2023/05/19 04:32:41;;;;;;;2.70;1.75;;;;;;;24.00;35.38;102632.34;20912919;28;20049;-65
2023/05/19 04:42:44;;;;;;;3.08;1.58;;;;;;;24.13;35.36;102647.91;20910699;28;20060;-66
2023/05/19 04:52:49;;;;;;;2.67;1.58;;;;;;;24.16;35.26;102652.97;20910944;28;20036;-65
2023/05/19 05:02:56;;;;;;;1.77;1.48;;;;;;;24.14;35.31;102633.63;20910963;28;20040;-65
2023/05/19 05:13:00;;;;;;;2.47;1.60;;;;;;;24.07;35.61;102619.03;20910392;28;20091;-65
2023/05/19 05:23:02;;;;;;;3.55;1.63;;;;;;;24.11;35.76;102610.97;20909682;28;20732;-65
2023/05/19 05:33:03;;;;;;;2.92;1.63;;;;;;;24.01;35.61;102614.50;20909357;28;20049;-66
2023/05/19 05:43:07;;;;;;;3.58;1.63;;;;;;;24.05;35.71;102612.84;20909376;28;20472;-65
2023/05/19 05:53:15;;;;;;;3.03;1.52;;;;;;;24.03;35.60;102595.50;20924061;28;20041;-66
2023/05/19 06:03:17;;;;;;;1.95;1.27;;;;;;;24.02;35.83;102579.81;20924706;28;20106;-66
2023/05/19 06:13:22;;;;;;;2.10;1.48;;;;;;;23.88;35.83;102550.59;20923540;28;20045;-66
2023/05/19 06:23:25;;;;;;;1.73;1.35;;;;;;;23.99;35.69;102572.78;20922838;28;20041;-66
2023/05/19 06:33:30;;;;;;;1.83;1.55;;;;;;;23.97;35.93;102577.81;20922152;28;20041;-66
2023/05/19 06:43:31;;;;;;;2.35;1.73;;;;;;;23.93;35.96;102553.44;20921363;28;20041;-65
2023/05/19 06:53:35;;;;;;;1.70;1.30;;;;;;;23.83;36.10;102532.66;20920852;28;20135;-66
2023/05/19 07:03:37;;;;;;;2.60;1.40;;;;;;;23.93;35.99;102548.69;20918418;28;20476;-66
2023/05/19 07:13:38;;;;;;;3.03;1.55;;;;;;;23.92;35.97;102537.78;20918762;28;20045;-66
2023/05/19 07:23:40;;;;;;;2.47;1.60;;;;;;;23.93;36.22;102540.31;20918322;28;20554;-65
2023/05/19 07:33:41;;;;;;;1.38;1.20;;;;;;;23.88;36.01;102528.22;20917251;28;20041;-65
2023/05/19 07:43:42;;;;;;;2.63;1.65;;;;;;;23.88;36.04;102529.06;20916811;28;20029;-65
2023/05/19 07:53:45;;;;;;;5.15;1.50;;;;;;;23.88;36.16;102528.22;20915759;28;20045;-65
2023/05/19 08:03:47;;;;;;;2.30;1.38;;;;;;;23.84;36.15;102520.34;20915212;28;20048;-66
2023/05/19 08:13:48;;;;;;;2.00;1.60;;;;;;;23.88;36.06;102519.84;20913508;28;20045;-65
2023/05/19 08:23:50;;;;;;;2.33;1.58;;;;;;;23.89;36.05;102513.13;20913066;28;20404;-65
2023/05/19 08:33:51;;;;;;;2.45;1.40;;;;;;;23.86;36.02;102514.50;20912617;28;20053;-65
2023/05/19 08:43:53;;;;;;;2.22;1.70;;;;;;;23.89;36.19;102521.53;20911855;28;20464;-64
2023/05/19 08:53:59;;;;;;;2.88;1.70;;;;;;;23.81;36.36;102518.06;20911313;28;20041;-65
2023/05/19 09:04:01;;;;;;;2.70;1.83;;;;;;;23.86;36.25;102508.06;20910508;28;20041;-64
2023/05/19 09:14:04;;;;;;;2.22;1.45;;;;;;;23.80;36.46;102521.97;20909882;28;20102;-65
2023/05/19 09:24:06;;;;;;;2.35;1.77;;;;;;;23.80;36.41;102505.22;20908794;28;20071;-65
2023/05/19 09:34:12;;;;;;;2.75;1.60;;;;;;;23.76;36.44;102508.78;20908720;28;20045;-66
2023/05/19 09:44:21;;;;;;;2.88;1.60;;;;;;;23.78;36.44;102513.03;20909453;28;20032;-67
2023/05/19 09:54:27;;;;;;;2.97;1.50;;;;;;;23.79;36.31;102531.50;20909859;28;20048;-66
2023/05/19 10:04:32;;;;;;;3.00;1.40;;;;;;;23.76;36.58;102532.00;20909214;28;20475;-68
2023/05/19 10:14:35;;;;;;;2.50;1.45;;;;;;;23.76;36.59;102537.59;20909460;28;20041;-66
2023/05/19 10:24:37;;;;;;;2.00;1.40;;;;;;;23.67;36.39;102533.56;20907769;28;20362;-66
2023/05/19 10:35:00;;;;;;;2.30;1.80;;;;;;;23.70;36.48;102561.00;20915141;28;20052;-65
2023/05/19 10:45:38;;;;;;;2.22;1.75;;;;;;;23.65;36.63;102574.91;20921589;28;20033;-64
2023/05/19 10:55:46;;;;;;;2.10;1.50;;;;;;;23.72;36.57;102574.72;20889287;28;20045;-65
2023/05/19 11:05:51;;;;;;;2.08;1.80;;;;;;;23.57;36.64;102562.22;20919968;28;20036;-66
2023/05/19 11:15:52;;;;;;;2.28;1.50;;;;;;;23.61;36.78;102576.50;20918727;28;20071;-65
2023/05/19 11:25:53;;;;;;;3.08;1.92;;;;;;;23.63;36.90;102579.88;20917860;28;20041;-65
2023/05/19 11:35:58;;;;;;;3.28;1.90;;;;;;;23.54;36.97;102570.25;20917420;28;20392;-65
2023/05/19 11:46:00;;;;;;;2.80;1.70;;;;;;;23.61;37.01;102587.69;20915031;28;20041;-65
2023/05/19 11:56:04;;;;;;;3.63;1.60;;;;;;;23.61;37.14;102584.91;20915388;28;20045;-65
2023/05/19 12:06:07;;;;;;;1.80;1.38;;;;;;;23.61;37.14;102582.09;20914571;28;20550;-66
2023/05/19 12:16:08;;;;;;;2.42;1.70;;;;;;;23.58;36.92;102577.84;20913331;28;20369;-64
2023/05/19 12:26:13;;;;;;;3.22;1.60;;;;;;;23.60;36.70;102583.22;20913000;28;20044;-64
2023/05/19 12:36:15;;;;;;;2.38;1.38;;;;;;;23.59;37.25;102587.97;20910144;28;20040;-66
2023/05/19 12:46:18;;;;;;;4.00;1.95;;;;;;;23.61;37.01;102584.91;20911863;28;20040;-65
2023/05/19 12:56:20;;;;;;;2.72;1.65;;;;;;;23.66;36.92;102604.56;20910253;28;20381;-65
2023/05/19 13:06:21;;;;;;;4.57;1.58;;;;;;;23.66;36.74;102600.91;20910405;28;20526;-64
2023/05/19 13:16:22;;;;;;;2.22;1.58;;;;;;;23.72;36.80;102620.28;20910095;28;20036;-64
2023/05/19 13:26:24;;;;;;;2.50;1.50;;;;;;;23.75;36.85;102619.75;20909114;28;20036;-64
2023/05/19 13:36:28;;;;;;;2.95;1.45;;;;;;;23.52;36.83;102578.06;20908872;28;20025;-64
2023/05/19 13:46:31;;;;;;;2.65;1.60;;;;;;;23.78;36.72;102605.28;20908715;28;20041;-66
2023/05/19 13:56:33;;;;;;;3.08;1.58;;;;;;;23.74;36.73;102612.50;20908280;28;20110;-64
2023/05/19 14:06:35;;;;;;;2.17;1.60;;;;;;;23.73;36.87;102596.84;20911069;28;20573;-65
2023/05/19 14:16:36;;;;;;;3.88;1.60;;;;;;;23.82;36.51;102595.28;20923454;28;20040;-66
2023/05/19 14:26:38;;;;;;;2.47;1.40;;;;;;;23.83;36.69;102571.78;20921886;28;20114;-64
2023/05/19 14:36:39;;;;;;;1.80;1.60;;;;;;;23.88;36.72;102575.75;20921452;28;20049;-66
2023/05/19 14:46:40;;;;;;;2.05;1.80;;;;;;;23.94;36.60;102577.50;20920721;28;20095;-64
2023/05/19 14:56:42;;;;;;;1.95;1.30;;;;;;;23.98;36.53;102575.88;20920096;28;20119;-64
2023/05/19 15:06:43;;;;;;;3.45;1.23;;;;;;;23.94;36.46;102560.72;20918931;28;20033;-63
2023/05/19 15:16:50;;;;;;;2.08;1.60;;;;;;;23.90;36.37;102543.63;20916996;28;20045;-66
2023/05/19 15:26:53;;;;;;;2.07;1.50;;;;;;;24.00;36.69;102565.25;20917340;28;20048;-66
2023/05/19 15:36:54;;;;;;;2.03;1.50;;;;;;;24.02;36.52;102554.66;20916389;28;20496;-64
2023/05/19 15:46:55;;;;;;;2.05;1.60;;;;;;;24.01;36.23;102551.03;20916334;28;20169;-63
2023/05/19 15:56:57;;;;;;;2.28;1.55;;;;;;;23.92;36.27;102521.00;20915097;28;20083;-66
2023/05/19 16:06:58;;;;;;;3.50;1.73;;;;;;;24.05;36.30;102538.22;20914757;28;20056;-65
2023/05/19 16:16:59;;;;;;;1.83;1.55;;;;;;;23.96;36.52;102511.81;20913553;28;20041;-65
2023/05/19 16:27:01;;;;;;;1.98;1.77;;;;;;;24.06;36.40;102525.06;20912997;28;20044;-65
2023/05/19 16:37:02;;;;;;;1.77;1.40;;;;;;;24.06;36.46;102516.69;20909948;28;20550;-65
2023/05/19 16:47:03;;;;;;;1.92;1.60;;;;;;;23.95;36.22;102473.75;20911368;28;20086;-64
2023/05/19 16:57:05;;;;;;;2.15;1.40;;;;;;;24.11;36.32;102485.97;20911134;28;20071;-64
2023/05/19 17:07:06;;;;;;;2.67;1.67;;;;;;;24.13;36.28;102475.34;20910740;28;20072;-66
2023/05/19 17:17:07;;;;;;;1.50;1.40;;;;;;;24.12;36.10;102482.03;20909845;28;20049;-64
2023/05/19 17:27:09;;;;;;;1.38;1.27;;;;;;;24.13;36.38;102472.53;20909456;28;20036;-65
2023/05/19 17:37:10;;;;;;;1.63;1.30;;;;;;;24.01;36.35;102444.75;20909004;28;20427;-66
2023/05/19 17:47:11;;;;;;;1.90;1.42;;;;;;;24.04;36.34;102421.00;20915593;28;20098;-65
2023/05/19 17:57:16;;;;;;;1.48;1.38;;;;;;;24.15;36.28;102428.38;20925076;28;20037;-65
2023/05/19 18:07:18;;;;;;;2.75;1.63;;;;;;;24.21;36.33;102427.31;20924355;28;20041;-65
2023/05/19 18:17:19;;;;;;;2.83;1.73;;;;;;;24.20;36.12;102420.03;20923443;28;20049;-65
2023/05/19 18:27:21;;;;;;;2.80;1.60;;;;;;;24.16;36.10;102388.09;20922757;28;20480;-65
2023/05/19 18:37:22;;;;;;;1.73;1.60;;;;;;;24.22;36.10;102381.44;20922584;28;20082;-64
2023/05/19 18:47:23;;;;;;;2.03;1.70;;;;;;;24.12;36.23;102349.75;20922062;28;20041;-65
2023/05/19 18:57:25;;;;;;;2.60;1.50;;;;;;;24.27;36.03;102380.63;20920572;28;20045;-65
2023/05/19 19:07:29;;;;;;;2.17;1.70;;;;;;;24.30;35.96;102366.94;20919947;28;20037;-64
2023/05/19 19:17:30;;;;;;;1.48;1.35;;;;;;;24.24;36.08;102328.88;20919151;28;20098;-64
2023/05/19 19:27:34;;;;;;;1.65;1.50;;;;;;;24.28;36.29;102315.16;20918339;28;20045;-63
2023/05/19 19:37:35;;;;;;;2.00;1.55;;;;;;;24.32;35.92;102288.34;20918015;28;20033;-65
2023/05/19 19:47:36;;;;;;;2.67;1.50;;;;;;;24.35;35.84;102260.66;20917141;28;20041;-64
2023/05/19 19:57:38;;;;;;;2.45;1.65;;;;;;;24.37;35.74;102266.00;20916236;28;20550;-64
2023/05/19 20:07:42;;;;;;;2.92;1.58;;;;;;;24.15;36.01;102203.81;20907637;28;20526;-64
2023/05/19 20:17:43;;;;;;;1.90;1.50;;;;;;;24.40;35.82;102217.06;20914723;28;20082;-65
2023/05/19 20:27:44;;;;;;;2.42;1.80;;;;;;;24.39;35.48;102209.81;20914118;28;20055;-65
2023/05/19 20:37:48;;;;;;;2.05;1.63;;;;;;;24.43;35.70;102208.13;20913467;28;20087;-65
2023/05/19 20:47:51;;;;;;;2.22;1.95;;;;;;;24.34;35.52;102188.22;20911964;28;20040;-65
2023/05/19 20:57:52;;;;;;;1.90;1.60;;;;;;;24.35;35.60;102179.53;20911553;28;20102;-66
2023/05/19 21:07:54;;;;;;;2.17;1.80;;;;;;;24.43;35.41;102205.34;20910145;28;20037;-65
2023/05/19 21:17:55;;;;;;;2.33;1.98;;;;;;;24.47;35.68;102223.25;20910332;28;20049;-65
2023/05/19 21:27:59;;;;;;;4.68;2.17;;;;;;;24.38;35.26;102199.72;20910047;28;20037;-65
2023/05/19 21:38:01;;;;;;;2.97;2.00;;;;;;;24.47;35.51;102223.25;20909655;28;20045;-65
2023/05/19 21:48:05;;;;;;;2.10;1.50;;;;;;;24.42;35.60;102231.63;20909225;28;20036;-65
2023/05/19 21:58:06;;;;;;;1.83;1.52;;;;;;;24.33;35.77;102170.59;20908503;28;20361;-65
2023/05/19 22:08:08;;;;;;;3.20;2.03;;;;;;;24.47;35.51;102195.28;20908770;28;20037;-65
2023/05/19 22:18:09;;;;;;;2.15;1.70;;;;;;;24.33;35.74;102172.53;20908637;28;20045;-64
2023/05/19 22:28:10;;;;;;;2.88;1.70;;;;;;;24.46;35.32;102200.00;20911740;28;20481;-63
2023/05/19 22:38:15;;;;;;;2.70;1.95;;;;;;;24.47;35.27;102207.31;20922481;28;20463;-64
2023/05/19 22:48:19;;;;;;;2.00;1.77;;;;;;;24.45;35.44;102197.50;20921275;28;20078;-64
2023/05/19 22:58:20;;;;;;;2.90;2.00;;;;;;;24.47;35.36;102217.66;20920925;28;20044;-64
2023/05/19 23:08:21;;;;;;;3.03;2.00;;;;;;;24.43;35.50;102222.13;20920706;28;20041;-64
2023/05/19 23:18:23;;;;;;;2.70;1.60;;;;;;;24.47;35.40;102226.91;20919492;28;20079;-64
2023/05/19 23:28:24;;;;;;;1.92;1.48;;;;;;;24.42;35.63;102226.03;20918313;28;20472;-66
2023/05/19 23:38:26;;;;;;;2.25;1.80;;;;;;;24.42;35.80;102234.41;20916673;28;20115;-66
2023/05/19 23:48:28;;;;;;;1.92;1.58;;;;;;;24.37;35.75;102228.81;20916593;28;20373;-65
2023/05/19 23:58:37;;;;;;;2.65;1.88;;;;;;;24.34;35.88;102225.41;20915980;28;20087;-64
